sensor_id;sensor_type;location;lat;lon;timestamp;pressure;altitude;pressure_sealevel;temperature;humidity
15568;BME280;7885;42.596;23.044;2023-02-03T00:01:25;93113.53;;;4.69;79.06
15568;BME280;7885;42.596;23.044;2023-02-03T00:03:52;93103.13;;;4.68;79.75
15568;BME280;7885;42.596;23.044;2023-02-03T00:06:20;93093.25;;;4.56;80.09
15568;BME280;7885;42.596;23.044;2023-02-03T00:08:47;93129.31;;;4.67;80.81
15568;BME280;7885;42.596;23.044;2023-02-03T00:11:14;93103.44;;;4.47;81.44
15568;BME280;7885;42.596;23.044;2023-02-03T00:13:41;93083.22;;;4.37;82.00
15568;BME280;7885;42.596;23.044;2023-02-03T00:16:07;93132.19;;;4.58;82.78
15568;BME280;7885;42.596;23.044;2023-02-03T00:18:34;93125.94;;;4.54;83.22
15568;BME280;7885;42.596;23.044;2023-02-03T00:21:01;93116.63;;;4.52;83.87
15568;BME280;7885;42.596;23.044;2023-02-03T00:23:29;93134.28;;;4.49;84.64
15568;BME280;7885;42.596;23.044;2023-02-03T00:25:57;93153.53;;;4.48;84.85
15568;BME280;7885;42.596;23.044;2023-02-03T00:28:24;93155.78;;;4.46;85.28
15568;BME280;7885;42.596;23.044;2023-02-03T00:30:52;93158.84;;;4.44;86.02
15568;BME280;7885;42.596;23.044;2023-02-03T00:33:19;93159.09;;;4.39;86.05
15568;BME280;7885;42.596;23.044;2023-02-03T00:35:46;93148.09;;;4.13;86.90
15568;BME280;7885;42.596;23.044;2023-02-03T00:38:12;93132.28;;;3.96;87.41
15568;BME280;7885;42.596;23.044;2023-02-03T00:40:40;93152.94;;;3.92;87.87
15568;BME280;7885;42.596;23.044;2023-02-03T00:43:08;93148.31;;;3.77;88.23
15568;BME280;7885;42.596;23.044;2023-02-03T00:45:35;93164.13;;;3.78;88.39
15568;BME280;7885;42.596;23.044;2023-02-03T00:48:02;93158.38;;;3.64;88.00
15568;BME280;7885;42.596;23.044;2023-02-03T00:50:29;93179.50;;;3.78;88.10
15568;BME280;7885;42.596;23.044;2023-02-03T00:52:55;93169.22;;;3.68;86.14
15568;BME280;7885;42.596;23.044;2023-02-03T00:55:22;93174.34;;;3.57;84.66
15568;BME280;7885;42.596;23.044;2023-02-03T00:57:50;93170.72;;;3.65;84.66
15568;BME280;7885;42.596;23.044;2023-02-03T01:00:18;93161.31;;;3.59;84.58
15568;BME280;7885;42.596;23.044;2023-02-03T01:02:44;93181.56;;;3.69;84.30
15568;BME280;7885;42.596;23.044;2023-02-03T01:05:11;93178.09;;;3.68;84.83
15568;BME280;7885;42.596;23.044;2023-02-03T01:07:38;93186.97;;;3.69;85.24
15568;BME280;7885;42.596;23.044;2023-02-03T01:10:06;93184.75;;;3.58;85.21
15568;BME280;7885;42.596;23.044;2023-02-03T01:12:33;93146.84;;;3.36;84.96
15568;BME280;7885;42.596;23.044;2023-02-03T01:15:01;93178.44;;;3.67;83.94
15568;BME280;7885;42.596;23.044;2023-02-03T01:17:27;93156.19;;;3.54;84.53
15568;BME280;7885;42.596;23.044;2023-02-03T01:19:54;93176.94;;;3.69;84.55
15568;BME280;7885;42.596;23.044;2023-02-03T01:22:21;93128.53;;;3.41;84.35
15568;BME280;7885;42.596;23.044;2023-02-03T01:24:47;93151.34;;;3.60;84.03
15568;BME280;7885;42.596;23.044;2023-02-03T01:27:14;93170.53;;;3.58;84.04
15568;BME280;7885;42.596;23.044;2023-02-03T01:29:41;93177.53;;;3.63;84.57
15568;BME280;7885;42.596;23.044;2023-02-03T01:32:09;93193.47;;;3.68;84.60
15568;BME280;7885;42.596;23.044;2023-02-03T01:34:36;93200.16;;;3.74;84.42
15568;BME280;7885;42.596;23.044;2023-02-03T01:37:03;93189.19;;;3.67;84.62
15568;BME280;7885;42.596;23.044;2023-02-03T01:39:29;93213.47;;;3.82;84.30
15568;BME280;7885;42.596;23.044;2023-02-03T01:41:56;93211.28;;;3.88;84.23
15568;BME280;7885;42.596;23.044;2023-02-03T01:44:41;93204.94;;;3.80;83.71
15568;BME280;7885;42.596;23.044;2023-02-03T01:47:21;93206.50;;;3.81;84.34
15568;BME280;7885;42.596;23.044;2023-02-03T01:49:53;93190.94;;;3.75;83.71
15568;BME280;7885;42.596;23.044;2023-02-03T01:52:21;93199.44;;;3.77;83.21
15568;BME280;7885;42.596;23.044;2023-02-03T01:54:49;93193.88;;;3.70;83.58
15568;BME280;7885;42.596;23.044;2023-02-03T01:57:21;93196.94;;;3.68;82.81
15568;BME280;7885;42.596;23.044;2023-02-03T01:59:50;93189.50;;;3.49;82.97
15568;BME280;7885;42.596;23.044;2023-02-03T02:02:21;93140.19;;;3.18;82.70
15568;BME280;7885;42.596;23.044;2023-02-03T02:04:52;93189.09;;;3.35;82.46
15568;BME280;7885;42.596;23.044;2023-02-03T02:07:22;93196.06;;;3.36;82.14
15568;BME280;7885;42.596;23.044;2023-02-03T02:09:49;93193.88;;;3.26;82.68
15568;BME280;7885;42.596;23.044;2023-02-03T02:12:16;93180.31;;;3.23;82.78
15568;BME280;7885;42.596;23.044;2023-02-03T02:14:43;93193.75;;;3.23;82.50
15568;BME280;7885;42.596;23.044;2023-02-03T02:17:19;93180.19;;;2.91;82.57
15568;BME280;7885;42.596;23.044;2023-02-03T02:23:10;93217.31;;;3.14;83.14
15568;BME280;7885;42.596;23.044;2023-02-03T02:26:02;93228.41;;;3.12;83.44
15568;BME280;7885;42.596;23.044;2023-02-03T02:28:52;93224.41;;;2.94;83.17
15568;BME280;7885;42.596;23.044;2023-02-03T02:34:29;93236.69;;;3.07;83.33
15568;BME280;7885;42.596;23.044;2023-02-03T02:37:03;93235.38;;;3.13;83.13
15568;BME280;7885;42.596;23.044;2023-02-03T02:39:37;93244.22;;;3.14;82.68
15568;BME280;7885;42.596;23.044;2023-02-03T02:42:07;93240.75;;;3.13;82.74
15568;BME280;7885;42.596;23.044;2023-02-03T02:44:40;93212.00;;;2.89;82.91
15568;BME280;7885;42.596;23.044;2023-02-03T02:47:16;93237.84;;;3.06;82.58
15568;BME280;7885;42.596;23.044;2023-02-03T02:49:47;93175.00;;;2.59;81.87
15568;BME280;7885;42.596;23.044;2023-02-03T02:52:17;93244.25;;;2.89;81.53
15568;BME280;7885;42.596;23.044;2023-02-03T02:54:48;93254.22;;;2.77;80.79
15568;BME280;7885;42.596;23.044;2023-02-03T02:57:17;93252.56;;;2.72;80.89
15568;BME280;7885;42.596;23.044;2023-02-03T02:59:46;93247.72;;;2.78;80.38
15568;BME280;7885;42.596;23.044;2023-02-03T03:02:15;93259.81;;;2.84;79.59
15568;BME280;7885;42.596;23.044;2023-02-03T03:04:43;93249.31;;;2.67;80.20
15568;BME280;7885;42.596;23.044;2023-02-03T03:07:16;93239.91;;;2.61;79.61
15568;BME280;7885;42.596;23.044;2023-02-03T03:09:46;93223.88;;;2.52;80.36
15568;BME280;7885;42.596;23.044;2023-02-03T03:12:16;93265.75;;;2.77;79.92
15568;BME280;7885;42.596;23.044;2023-02-03T03:14:47;93258.47;;;2.66;79.80
15568;BME280;7885;42.596;23.044;2023-02-03T03:17:20;93273.72;;;2.74;79.65
15568;BME280;7885;42.596;23.044;2023-02-03T03:19:52;93273.28;;;2.72;79.61
15568;BME280;7885;42.596;23.044;2023-02-03T03:22:23;93290.72;;;2.66;79.93
15568;BME280;7885;42.596;23.044;2023-02-03T03:24:55;93283.00;;;2.52;80.73
15568;BME280;7885;42.596;23.044;2023-02-03T03:27:27;93271.03;;;2.49;81.79
15568;BME280;7885;42.596;23.044;2023-02-03T03:29:57;93286.13;;;2.42;83.35
15568;BME280;7885;42.596;23.044;2023-02-03T03:32:27;93288.47;;;2.43;83.53
15568;BME280;7885;42.596;23.044;2023-02-03T03:34:57;93284.44;;;2.37;84.41
15568;BME280;7885;42.596;23.044;2023-02-03T03:37:31;93248.72;;;2.25;84.75
15568;BME280;7885;42.596;23.044;2023-02-03T03:40:02;93271.47;;;2.39;86.89
15568;BME280;7885;42.596;23.044;2023-02-03T03:42:36;93265.66;;;2.49;85.08
15568;BME280;7885;42.596;23.044;2023-02-03T03:45:08;93273.28;;;2.47;84.71
15568;BME280;7885;42.596;23.044;2023-02-03T03:47:42;93229.16;;;2.36;84.65
15568;BME280;7885;42.596;23.044;2023-02-03T03:52:42;93258.06;;;2.51;84.62
15568;BME280;7885;42.596;23.044;2023-02-03T03:55:13;93252.00;;;2.54;84.07
15568;BME280;7885;42.596;23.044;2023-02-03T03:57:42;93253.31;;;2.48;84.51
15568;BME280;7885;42.596;23.044;2023-02-03T04:00:14;93196.03;;;2.08;83.15
15568;BME280;7885;42.596;23.044;2023-02-03T04:02:45;93158.66;;;1.79;82.72
15568;BME280;7885;42.596;23.044;2023-02-03T04:05:16;93267.44;;;2.45;83.50
15568;BME280;7885;42.596;23.044;2023-02-03T04:07:45;93267.91;;;2.47;82.57
15568;BME280;7885;42.596;23.044;2023-02-03T04:10:17;93266.22;;;2.43;81.90
15568;BME280;7885;42.596;23.044;2023-02-03T04:12:47;93243.94;;;2.30;81.47
15568;BME280;7885;42.596;23.044;2023-02-03T04:15:14;93261.59;;;2.19;81.51
15568;BME280;7885;42.596;23.044;2023-02-03T04:17:40;93266.28;;;2.22;80.86
15568;BME280;7885;42.596;23.044;2023-02-03T04:20:10;93251.28;;;2.09;80.61
15568;BME280;7885;42.596;23.044;2023-02-03T04:22:37;93270.56;;;2.23;80.87
15568;BME280;7885;42.596;23.044;2023-02-03T04:25:04;93290.91;;;2.24;80.88
15568;BME280;7885;42.596;23.044;2023-02-03T04:27:31;93288.09;;;2.21;80.89
15568;BME280;7885;42.596;23.044;2023-02-03T04:29:59;93271.84;;;2.05;80.78
15568;BME280;7885;42.596;23.044;2023-02-03T04:32:25;93279.94;;;2.17;80.34
15568;BME280;7885;42.596;23.044;2023-02-03T04:34:52;93284.84;;;2.15;80.03
15568;BME280;7885;42.596;23.044;2023-02-03T04:37:20;93301.88;;;2.31;80.46
15568;BME280;7885;42.596;23.044;2023-02-03T04:39:48;93294.06;;;2.26;80.47
15568;BME280;7885;42.596;23.044;2023-02-03T04:42:16;93309.72;;;2.36;80.30
15568;BME280;7885;42.596;23.044;2023-02-03T04:44:43;93264.28;;;2.19;79.91
15568;BME280;7885;42.596;23.044;2023-02-03T04:47:10;93292.81;;;2.36;79.58
15568;BME280;7885;42.596;23.044;2023-02-03T04:49:36;93303.91;;;2.46;79.17
15568;BME280;7885;42.596;23.044;2023-02-03T04:52:03;93327.66;;;2.57;79.50
15568;BME280;7885;42.596;23.044;2023-02-03T04:54:32;93326.78;;;2.65;79.11
15568;BME280;7885;42.596;23.044;2023-02-03T04:56:59;93333.59;;;2.62;79.33
15568;BME280;7885;42.596;23.044;2023-02-03T04:59:27;93312.22;;;2.53;79.21
15568;BME280;7885;42.596;23.044;2023-02-03T05:01:54;93337.75;;;2.72;78.57
15568;BME280;7885;42.596;23.044;2023-02-03T05:04:20;93271.91;;;2.29;78.66
15568;BME280;7885;42.596;23.044;2023-02-03T05:06:47;93335.16;;;2.63;79.28
15568;BME280;7885;42.596;23.044;2023-02-03T05:09:14;93337.53;;;2.65;78.93
15568;BME280;7885;42.596;23.044;2023-02-03T05:11:42;93320.72;;;2.55;79.11
15568;BME280;7885;42.596;23.044;2023-02-03T05:14:09;93332.16;;;2.65;79.51
15568;BME280;7885;42.596;23.044;2023-02-03T05:16:36;93338.19;;;2.62;79.30
15568;BME280;7885;42.596;23.044;2023-02-03T05:19:03;93332.38;;;2.47;79.85
15568;BME280;7885;42.596;23.044;2023-02-03T05:21:29;93352.28;;;2.46;80.54
15568;BME280;7885;42.596;23.044;2023-02-03T05:23:56;93330.19;;;2.29;80.61
15568;BME280;7885;42.596;23.044;2023-02-03T05:26:23;93363.03;;;2.46;80.39
15568;BME280;7885;42.596;23.044;2023-02-03T05:28:51;93354.72;;;2.39;80.46
15568;BME280;7885;42.596;23.044;2023-02-03T05:31:17;93362.78;;;2.39;80.82
15568;BME280;7885;42.596;23.044;2023-02-03T05:33:44;93363.25;;;2.53;80.19
15568;BME280;7885;42.596;23.044;2023-02-03T05:36:11;93367.78;;;2.29;80.26
15568;BME280;7885;42.596;23.044;2023-02-03T05:38:38;93381.81;;;2.34;80.77
15568;BME280;7885;42.596;23.044;2023-02-03T05:41:06;93386.50;;;2.37;80.63
15568;BME280;7885;42.596;23.044;2023-02-03T05:43:51;93386.03;;;2.35;80.89
15568;BME280;7885;42.596;23.044;2023-02-03T05:46:18;93384.00;;;2.32;81.35
15568;BME280;7885;42.596;23.044;2023-02-03T05:48:45;93387.94;;;2.35;81.31
15568;BME280;7885;42.596;23.044;2023-02-03T05:51:11;93393.31;;;2.35;80.79
15568;BME280;7885;42.596;23.044;2023-02-03T05:53:38;93357.47;;;2.19;80.44
15568;BME280;7885;42.596;23.044;2023-02-03T05:56:05;93392.66;;;2.38;80.45
15568;BME280;7885;42.596;23.044;2023-02-03T05:58:32;93404.28;;;2.42;80.42
15568;BME280;7885;42.596;23.044;2023-02-03T06:01:00;93386.81;;;2.36;80.52
15568;BME280;7885;42.596;23.044;2023-02-03T06:03:27;93349.69;;;2.05;80.23
15568;BME280;7885;42.596;23.044;2023-02-03T06:05:53;93393.19;;;2.31;80.18
15568;BME280;7885;42.596;23.044;2023-02-03T06:08:20;93391.38;;;2.23;80.51
15568;BME280;7885;42.596;23.044;2023-02-03T06:10:47;93407.75;;;2.30;80.00
15568;BME280;7885;42.596;23.044;2023-02-03T06:13:15;93403.47;;;2.29;80.55
15568;BME280;7885;42.596;23.044;2023-02-03T06:15:42;93406.16;;;2.29;80.70
15568;BME280;7885;42.596;23.044;2023-02-03T06:18:10;93406.66;;;2.43;80.48
15568;BME280;7885;42.596;23.044;2023-02-03T06:20:37;93409.38;;;2.55;79.87
15568;BME280;7885;42.596;23.044;2023-02-03T06:23:04;93407.41;;;2.65;79.40
15568;BME280;7885;42.596;23.044;2023-02-03T06:25:30;93399.56;;;2.72;79.13
15568;BME280;7885;42.596;23.044;2023-02-03T06:27:58;93409.66;;;2.87;78.57
15568;BME280;7885;42.596;23.044;2023-02-03T06:30:26;93421.44;;;2.94;78.03
15568;BME280;7885;42.596;23.044;2023-02-03T06:32:53;93416.84;;;2.95;77.51
15568;BME280;7885;42.596;23.044;2023-02-03T06:35:21;93412.38;;;2.99;77.45
15568;BME280;7885;42.596;23.044;2023-02-03T06:37:48;93401.81;;;2.94;76.80
15568;BME280;7885;42.596;23.044;2023-02-03T06:40:15;93422.78;;;3.00;76.80
15568;BME280;7885;42.596;23.044;2023-02-03T06:42:44;93397.78;;;3.00;77.11
15568;BME280;7885;42.596;23.044;2023-02-03T06:45:11;93425.59;;;3.28;76.05
15568;BME280;7885;42.596;23.044;2023-02-03T06:47:38;93420.84;;;3.74;74.91
15568;BME280;7885;42.596;23.044;2023-02-03T06:50:06;93436.06;;;5.05;71.08
15568;BME280;7885;42.596;23.044;2023-02-03T06:52:35;93431.72;;;5.47;67.79
15568;BME280;7885;42.596;23.044;2023-02-03T06:55:01;93437.31;;;5.23;68.42
15568;BME280;7885;42.596;23.044;2023-02-03T06:57:28;93434.69;;;6.85;64.73
15568;BME280;7885;42.596;23.044;2023-02-03T06:59:55;93437.59;;;9.06;58.58
15568;BME280;7885;42.596;23.044;2023-02-03T07:02:22;93434.09;;;12.44;48.32
15568;BME280;7885;42.596;23.044;2023-02-03T07:04:49;93415.59;;;15.30;40.54
15568;BME280;7885;42.596;23.044;2023-02-03T07:07:15;93420.44;;;16.49;35.25
15568;BME280;7885;42.596;23.044;2023-02-03T07:09:44;93416.69;;;17.06;33.41
15568;BME280;7885;42.596;23.044;2023-02-03T07:12:10;93426.78;;;18.85;30.45
15568;BME280;7885;42.596;23.044;2023-02-03T07:14:37;93376.25;;;20.34;27.66
15568;BME280;7885;42.596;23.044;2023-02-03T07:17:04;93418.66;;;21.55;25.50
15568;BME280;7885;42.596;23.044;2023-02-03T07:19:31;93429.41;;;21.53;25.14
15568;BME280;7885;42.596;23.044;2023-02-03T07:21:58;93431.38;;;21.96;24.04
15568;BME280;7885;42.596;23.044;2023-02-03T07:24:25;93429.91;;;21.83;23.22
15568;BME280;7885;42.596;23.044;2023-02-03T07:26:53;93404.84;;;20.52;24.39
15568;BME280;7885;42.596;23.044;2023-02-03T07:29:19;93429.53;;;21.72;23.24
15568;BME280;7885;42.596;23.044;2023-02-03T07:31:46;93322.22;;;21.63;23.02
15568;BME280;7885;42.596;23.044;2023-02-03T07:34:13;93428.09;;;21.89;22.26
15568;BME280;7885;42.596;23.044;2023-02-03T07:36:40;93407.84;;;23.17;21.45
15568;BME280;7885;42.596;23.044;2023-02-03T07:39:07;93417.72;;;23.82;20.36
15568;BME280;7885;42.596;23.044;2023-02-03T07:41:33;93439.53;;;25.24;19.20
15568;BME280;7885;42.596;23.044;2023-02-03T07:44:02;93408.06;;;24.85;19.57
15568;BME280;7885;42.596;23.044;2023-02-03T07:46:28;93438.09;;;25.67;18.66
15568;BME280;7885;42.596;23.044;2023-02-03T07:48:55;93442.31;;;25.62;18.14
15568;BME280;7885;42.596;23.044;2023-02-03T07:51:22;93444.38;;;25.76;17.75
15568;BME280;7885;42.596;23.044;2023-02-03T07:53:49;93447.19;;;26.49;17.55
15568;BME280;7885;42.596;23.044;2023-02-03T07:56:15;93456.53;;;26.17;17.48
15568;BME280;7885;42.596;23.044;2023-02-03T07:58:42;93456.41;;;25.97;17.90
15568;BME280;7885;42.596;23.044;2023-02-03T08:01:11;93462.56;;;26.74;16.95
15568;BME280;7885;42.596;23.044;2023-02-03T08:03:38;93469.97;;;26.77;17.06
15568;BME280;7885;42.596;23.044;2023-02-03T08:06:06;93426.00;;;25.70;17.49
15568;BME280;7885;42.596;23.044;2023-02-03T08:08:33;93456.63;;;26.08;16.84
15568;BME280;7885;42.596;23.044;2023-02-03T08:10:59;93465.63;;;26.91;16.66
15568;BME280;7885;42.596;23.044;2023-02-03T08:13:26;93457.69;;;28.31;16.35
15568;BME280;7885;42.596;23.044;2023-02-03T08:15:53;93467.03;;;29.16;14.89
15568;BME280;7885;42.596;23.044;2023-02-03T08:18:21;93460.66;;;29.16;14.99
15568;BME280;7885;42.596;23.044;2023-02-03T08:20:48;93466.16;;;29.41;14.78
15568;BME280;7885;42.596;23.044;2023-02-03T08:23:15;93432.41;;;29.78;14.42
15568;BME280;7885;42.596;23.044;2023-02-03T08:25:42;93445.34;;;29.53;14.69
15568;BME280;7885;42.596;23.044;2023-02-03T08:28:08;93461.84;;;30.11;14.03
15568;BME280;7885;42.596;23.044;2023-02-03T08:30:35;93462.91;;;30.24;14.12
15568;BME280;7885;42.596;23.044;2023-02-03T08:33:02;93453.63;;;29.85;13.97
15568;BME280;7885;42.596;23.044;2023-02-03T08:35:31;93464.03;;;30.99;14.02
15568;BME280;7885;42.596;23.044;2023-02-03T08:37:57;93484.78;;;31.87;13.23
15568;BME280;7885;42.596;23.044;2023-02-03T08:40:24;93486.75;;;31.12;13.44
15568;BME280;7885;42.596;23.044;2023-02-03T08:42:51;93413.59;;;29.95;13.12
15568;BME280;7885;42.596;23.044;2023-02-03T08:45:18;93452.25;;;30.50;13.65
15568;BME280;7885;42.596;23.044;2023-02-03T08:47:45;93489.22;;;30.27;13.62
15568;BME280;7885;42.596;23.044;2023-02-03T08:50:11;93491.78;;;30.36;14.16
15568;BME280;7885;42.596;23.044;2023-02-03T08:52:40;93484.84;;;29.50;14.27
15568;BME280;7885;42.596;23.044;2023-02-03T08:55:07;93487.63;;;29.98;14.29
15568;BME280;7885;42.596;23.044;2023-02-03T08:57:34;93481.59;;;28.26;14.85
15568;BME280;7885;42.596;23.044;2023-02-03T09:00:03;93457.84;;;25.78;16.80
15568;BME280;7885;42.596;23.044;2023-02-03T09:02:30;93491.91;;;26.11;16.76
15568;BME280;7885;42.596;23.044;2023-02-03T09:04:57;93478.50;;;25.00;17.83
15568;BME280;7885;42.596;23.044;2023-02-03T09:07:24;93476.06;;;26.17;17.44
15568;BME280;7885;42.596;23.044;2023-02-03T09:09:52;93462.84;;;27.66;16.30
15568;BME280;7885;42.596;23.044;2023-02-03T09:12:19;93460.00;;;28.64;15.13
15568;BME280;7885;42.596;23.044;2023-02-03T09:14:46;93473.53;;;29.87;14.34
15568;BME280;7885;42.596;23.044;2023-02-03T09:17:12;93457.34;;;29.17;14.53
15568;BME280;7885;42.596;23.044;2023-02-03T09:19:39;93476.53;;;28.93;14.93
15568;BME280;7885;42.596;23.044;2023-02-03T09:22:06;93483.31;;;26.24;16.66
15568;BME280;7885;42.596;23.044;2023-02-03T09:24:32;93483.72;;;25.78;17.05
15568;BME280;7885;42.596;23.044;2023-02-03T09:27:01;93467.34;;;25.00;17.10
15568;BME280;7885;42.596;23.044;2023-02-03T09:29:27;93477.56;;;26.03;17.27
15568;BME280;7885;42.596;23.044;2023-02-03T09:31:54;93472.78;;;26.04;16.62
15568;BME280;7885;42.596;23.044;2023-02-03T09:34:21;93464.03;;;24.54;17.47
15568;BME280;7885;42.596;23.044;2023-02-03T09:36:48;93461.78;;;25.00;17.38
15568;BME280;7885;42.596;23.044;2023-02-03T09:39:16;93455.47;;;25.23;17.37
15568;BME280;7885;42.596;23.044;2023-02-03T09:41:54;93466.69;;;24.72;17.48
15568;BME280;7885;42.596;23.044;2023-02-03T09:44:29;93473.16;;;24.87;17.75
15568;BME280;7885;42.596;23.044;2023-02-03T09:47:01;93464.00;;;23.03;18.20
15568;BME280;7885;42.596;23.044;2023-02-03T09:49:37;93460.97;;;23.74;18.59
15568;BME280;7885;42.596;23.044;2023-02-03T09:52:11;93466.53;;;23.55;17.68
15568;BME280;7885;42.596;23.044;2023-02-03T09:54:42;93471.41;;;23.06;17.92
15568;BME280;7885;42.596;23.044;2023-02-03T09:57:17;93467.47;;;23.43;18.12
15568;BME280;7885;42.596;23.044;2023-02-03T09:59:46;93476.41;;;23.47;18.32
15568;BME280;7885;42.596;23.044;2023-02-03T10:02:31;93472.38;;;23.85;18.51
15568;BME280;7885;42.596;23.044;2023-02-03T10:05:06;93450.78;;;22.58;18.81
15568;BME280;7885;42.596;23.044;2023-02-03T10:07:42;93413.16;;;19.77;20.49
15568;BME280;7885;42.596;23.044;2023-02-03T10:10:17;93475.81;;;18.77;22.23
15568;BME280;7885;42.596;23.044;2023-02-03T10:12:57;93464.91;;;19.31;22.05
15568;BME280;7885;42.596;23.044;2023-02-03T10:15:47;93469.31;;;17.47;23.10
15568;BME280;7885;42.596;23.044;2023-02-03T10:18:20;93475.50;;;16.42;25.23
15568;BME280;7885;42.596;23.044;2023-02-03T10:20:52;93472.78;;;15.62;26.06
15568;BME280;7885;42.596;23.044;2023-02-03T10:23:27;93438.84;;;16.06;24.77
15568;BME280;7885;42.596;23.044;2023-02-03T10:25:56;93438.25;;;16.41;24.17
15568;BME280;7885;42.596;23.044;2023-02-03T10:28:28;93462.22;;;17.66;22.66
15568;BME280;7885;42.596;23.044;2023-02-03T10:30:58;93446.94;;;19.10;22.15
15568;BME280;7885;42.596;23.044;2023-02-03T10:33:26;93444.13;;;20.47;20.04
15568;BME280;7885;42.596;23.044;2023-02-03T10:35:56;93443.44;;;20.18;19.75
15568;BME280;7885;42.596;23.044;2023-02-03T10:38:35;93413.31;;;18.87;20.93
15568;BME280;7885;42.596;23.044;2023-02-03T10:41:06;93443.56;;;20.52;20.45
15568;BME280;7885;42.596;23.044;2023-02-03T10:43:33;93340.94;;;20.50;19.26
15568;BME280;7885;42.596;23.044;2023-02-03T10:46:19;93440.38;;;21.35;19.26
15568;BME280;7885;42.596;23.044;2023-02-03T10:48:46;93411.63;;;20.26;19.68
15568;BME280;7885;42.596;23.044;2023-02-03T10:51:18;93395.88;;;17.96;20.86
15568;BME280;7885;42.596;23.044;2023-02-03T10:53:46;93410.72;;;17.47;22.56
15568;BME280;7885;42.596;23.044;2023-02-03T10:56:18;93409.72;;;19.31;21.12
15568;BME280;7885;42.596;23.044;2023-02-03T10:58:48;93387.34;;;17.91;21.21
15568;BME280;7885;42.596;23.044;2023-02-03T11:01:18;93414.81;;;17.58;20.82
15568;BME280;7885;42.596;23.044;2023-02-03T11:03:54;93414.81;;;16.80;21.87
15568;BME280;7885;42.596;23.044;2023-02-03T11:06:22;93388.50;;;15.62;24.01
15568;BME280;7885;42.596;23.044;2023-02-03T11:08:50;93413.56;;;17.04;22.86
15568;BME280;7885;42.596;23.044;2023-02-03T11:11:20;93423.25;;;18.36;21.36
15568;BME280;7885;42.596;23.044;2023-02-03T11:13:52;93417.19;;;19.18;20.93
15568;BME280;7885;42.596;23.044;2023-02-03T11:16:20;93403.44;;;19.02;22.47
15568;BME280;7885;42.596;23.044;2023-02-03T11:18:54;93399.22;;;18.04;21.95
15568;BME280;7885;42.596;23.044;2023-02-03T11:21:24;93416.22;;;17.66;22.99
15568;BME280;7885;42.596;23.044;2023-02-03T11:23:56;93414.75;;;17.62;22.86
15568;BME280;7885;42.596;23.044;2023-02-03T11:26:28;93417.69;;;17.71;22.36
15568;BME280;7885;42.596;23.044;2023-02-03T11:28:57;93364.16;;;17.72;22.08
15568;BME280;7885;42.596;23.044;2023-02-03T11:31:28;93384.03;;;16.69;23.34
15568;BME280;7885;42.596;23.044;2023-02-03T11:33:57;93398.34;;;16.99;23.90
15568;BME280;7885;42.596;23.044;2023-02-03T11:36:27;93391.72;;;16.97;23.45
15568;BME280;7885;42.596;23.044;2023-02-03T11:39:23;93391.63;;;17.00;24.04
15568;BME280;7885;42.596;23.044;2023-02-03T11:41:51;93404.41;;;17.30;23.66
15568;BME280;7885;42.596;23.044;2023-02-03T11:44:20;93364.47;;;17.22;23.11
15568;BME280;7885;42.596;23.044;2023-02-03T11:46:52;93374.72;;;16.39;24.16
15568;BME280;7885;42.596;23.044;2023-02-03T11:49:37;93375.09;;;15.11;24.56
15568;BME280;7885;42.596;23.044;2023-02-03T11:52:22;93371.34;;;13.82;26.31
15568;BME280;7885;42.596;23.044;2023-02-03T11:54:59;93385.13;;;12.99;28.45
15568;BME280;7885;42.596;23.044;2023-02-03T11:57:38;93387.22;;;12.66;29.86
15568;BME280;7885;42.596;23.044;2023-02-03T12:00:14;93382.59;;;12.49;31.13
15568;BME280;7885;42.596;23.044;2023-02-03T12:03:17;93375.69;;;12.02;31.16
15568;BME280;7885;42.596;23.044;2023-02-03T12:06:09;93384.25;;;11.51;32.23
15568;BME280;7885;42.596;23.044;2023-02-03T12:08:56;93384.22;;;11.58;30.93
15568;BME280;7885;42.596;23.044;2023-02-03T12:11:37;93394.28;;;11.05;33.00
15568;BME280;7885;42.596;23.044;2023-02-03T12:14:23;93387.94;;;10.69;33.99
15568;BME280;7885;42.596;23.044;2023-02-03T12:17:13;93390.50;;;10.34;35.48
15568;BME280;7885;42.596;23.044;2023-02-03T12:19:56;93381.50;;;10.19;36.27
15568;BME280;7885;42.596;23.044;2023-02-03T12:22:34;93391.63;;;10.26;35.27
15568;BME280;7885;42.596;23.044;2023-02-03T12:25:14;93393.28;;;10.44;33.66
15568;BME280;7885;42.596;23.044;2023-02-03T12:27:48;93374.69;;;10.60;34.45
15568;BME280;7885;42.596;23.044;2023-02-03T12:30:23;93394.84;;;10.45;34.35
15568;BME280;7885;42.596;23.044;2023-02-03T12:32:54;93399.22;;;9.99;35.00
15568;BME280;7885;42.596;23.044;2023-02-03T12:35:28;93396.06;;;9.97;35.43
15568;BME280;7885;42.596;23.044;2023-02-03T12:38:01;93349.69;;;9.69;35.95
15568;BME280;7885;42.596;23.044;2023-02-03T12:40:35;93387.38;;;9.74;36.86
15568;BME280;7885;42.596;23.044;2023-02-03T12:43:16;93347.53;;;9.41;36.20
15568;BME280;7885;42.596;23.044;2023-02-03T12:45:50;93386.94;;;9.64;36.51
15568;BME280;7885;42.596;23.044;2023-02-03T12:48:20;93373.78;;;10.35;37.31
15568;BME280;7885;42.596;23.044;2023-02-03T12:50:51;93358.91;;;11.26;34.12
15568;BME280;7885;42.596;23.044;2023-02-03T12:53:22;93382.28;;;12.15;32.77
15568;BME280;7885;42.596;23.044;2023-02-03T12:55:54;93379.09;;;12.45;31.62
15568;BME280;7885;42.596;23.044;2023-02-03T12:58:27;93306.38;;;11.79;32.21
15568;BME280;7885;42.596;23.044;2023-02-03T13:00:58;93381.91;;;11.60;32.47
15568;BME280;7885;42.596;23.044;2023-02-03T13:03:29;93374.09;;;11.27;33.77
15568;BME280;7885;42.596;23.044;2023-02-03T13:06:05;93355.31;;;10.87;34.93
15568;BME280;7885;42.596;23.044;2023-02-03T13:08:36;93370.75;;;10.44;36.04
15568;BME280;7885;42.596;23.044;2023-02-03T13:11:12;93314.38;;;9.76;36.99
15568;BME280;7885;42.596;23.044;2023-02-03T13:13:47;93368.13;;;10.00;38.21
15568;BME280;7885;42.596;23.044;2023-02-03T13:16:17;93322.06;;;9.59;39.42
15568;BME280;7885;42.596;23.044;2023-02-03T13:18:48;93356.34;;;9.75;39.47
15568;BME280;7885;42.596;23.044;2023-02-03T13:21:18;93307.09;;;9.32;40.00
15568;BME280;7885;42.596;23.044;2023-02-03T13:23:44;93352.34;;;9.61;40.11
15568;BME280;7885;42.596;23.044;2023-02-03T13:26:27;93341.09;;;9.63;40.03
15568;BME280;7885;42.596;23.044;2023-02-03T13:29:14;93281.31;;;9.08;40.83